Time;durP1;ratioP1;P1;durP2;ratioP2;P2;SDS_P1;SDS_P2;PMS_P1;PMS_P2;Temp;Humidity;BMP_temperature;BMP_pressure;BME280_temperature;BME280_humidity;BME280_pressure;Samples;Min_cycle;Max_cycle;Signal;HPM_P1;HPM_P2
2021/07/15 00:00:53;;;;;;;8.70;4.70;;;;;;;;;;5016878;28;20688;-82
2021/07/15 00:03:28;;;;;;;6.97;4.80;;;;;;;;;;5014845;28;20210;-81
2021/07/15 00:05:56;;;;;;;7.30;4.83;;;;;;;;;;5004642;28;20227;-81
2021/07/15 00:08:25;;;;;;;7.10;4.10;;;;;;;;;;5002620;28;20231;-82
2021/07/15 00:10:53;;;;;;;9.20;4.83;;;;;;;;;;5010676;28;20215;-82
2021/07/15 00:13:20;;;;;;;5.73;4.23;;;;;;;;;;5008901;28;20215;-82
2021/07/15 00:15:50;;;;;;;8.87;5.23;;;;;;;;;;5010411;28;20231;-82
2021/07/15 00:18:19;;;;;;;7.20;5.23;;;;;;;;;;5007962;28;20287;-82
2021/07/15 00:20:47;;;;;;;7.70;5.93;;;;;;;;;;5004701;28;20302;-82
2021/07/15 00:23:15;;;;;;;6.83;5.17;;;;;;;;;;5007109;28;20215;-83
2021/07/15 00:25:43;;;;;;;6.27;4.80;;;;;;;;;;5005825;28;20235;-83
2021/07/15 00:28:10;;;;;;;6.60;5.20;;;;;;;;;;5002966;28;20296;-83
2021/07/15 00:30:37;;;;;;;7.77;5.03;;;;;;;;;;5010043;28;20240;-82
2021/07/15 00:33:06;;;;;;;9.37;5.07;;;;;;;;;;5010879;28;20269;-82
2021/07/15 00:35:33;;;;;;;5.67;4.77;;;;;;;;;;5005863;28;20284;-82
2021/07/15 00:38:01;;;;;;;9.43;5.40;;;;;;;;;;5008924;28;20201;-82
2021/07/15 00:40:28;;;;;;;8.10;5.40;;;;;;;;;;5010159;28;20220;-82
2021/07/15 00:42:55;;;;;;;10.93;5.20;;;;;;;;;;5015091;28;20215;-82
2021/07/15 00:45:22;;;;;;;12.30;5.20;;;;;;;;;;5007834;28;20570;-82
2021/07/15 00:47:50;;;;;;;6.73;5.40;;;;;;;;;;5009674;28;20315;-81
2021/07/15 00:50:19;;;;;;;7.73;5.67;;;;;;;;;;5008037;28;20300;-83
2021/07/15 00:52:47;;;;;;;10.20;5.53;;;;;;;;;;5011672;28;20219;-82
2021/07/15 00:55:17;;;;;;;8.33;5.30;;;;;;;;;;5014142;28;20216;-83
2021/07/15 00:57:44;;;;;;;8.07;5.67;;;;;;;;;;5011285;28;20240;-82
2021/07/15 01:00:12;;;;;;;11.30;6.30;;;;;;;;;;5010265;28;20228;-82
2021/07/15 01:02:39;;;;;;;10.87;5.97;;;;;;;;;;5013780;28;20208;-83
2021/07/15 01:05:08;;;;;;;14.47;5.97;;;;;;;;;;5011841;28;20608;-83
2021/07/15 01:07:36;;;;;;;7.93;5.77;;;;;;;;;;5008588;28;20664;-83
2021/07/15 01:10:05;;;;;;;7.03;5.60;;;;;;;;;;5008737;28;20287;-83
2021/07/15 01:12:35;;;;;;;14.23;6.10;;;;;;;;;;5009609;28;20650;-82
2021/07/15 01:15:07;;;;;;;19.33;6.50;;;;;;;;;;5008695;28;20225;-83
2021/07/15 01:17:38;;;;;;;10.93;5.73;;;;;;;;;;5010813;28;20248;-83
2021/07/15 01:20:31;;;;;;;9.13;6.10;;;;;;;;;;5009423;28;20286;-83
2021/07/15 01:23:06;;;;;;;11.67;5.67;;;;;;;;;;5029563;22;20248;-75
2021/07/15 01:25:51;;;;;;;8.53;5.40;;;;;;;;;;5025910;28;20199;-75
2021/07/15 01:28:22;;;;;;;6.60;5.17;;;;;;;;;;5025364;28;20224;-75
2021/07/15 01:30:51;;;;;;;12.87;5.60;;;;;;;;;;5028961;28;20600;-75
2021/07/15 01:33:20;;;;;;;11.47;5.87;;;;;;;;;;5045281;28;20202;-75
2021/07/15 01:35:49;;;;;;;13.53;5.63;;;;;;;;;;5045120;28;20199;-74
2021/07/15 01:38:18;;;;;;;14.03;5.67;;;;;;;;;;5046908;28;20198;-75
2021/07/15 01:40:47;;;;;;;10.80;5.30;;;;;;;;;;5046093;28;20788;-75
2021/07/15 01:43:17;;;;;;;8.97;5.70;;;;;;;;;;5046377;28;20553;-75
2021/07/15 01:45:45;;;;;;;8.40;6.00;;;;;;;;;;5049076;28;20215;-75
2021/07/15 01:48:14;;;;;;;11.27;5.27;;;;;;;;;;5044077;28;20220;-75
2021/07/15 01:50:41;;;;;;;8.27;5.60;;;;;;;;;;5044139;28;21515;-75
2021/07/15 01:53:09;;;;;;;8.07;6.27;;;;;;;;;;5045916;28;20225;-74
2021/07/15 01:55:37;;;;;;;9.00;6.70;;;;;;;;;;5046221;28;20209;-74
2021/07/15 01:58:04;;;;;;;10.37;6.73;;;;;;;;;;5047736;28;20655;-75
2021/07/15 02:00:32;;;;;;;7.70;6.10;;;;;;;;;;5042287;28;20673;-75
2021/07/15 02:03:00;;;;;;;10.27;6.00;;;;;;;;;;5045102;28;20198;-75
2021/07/15 02:05:29;;;;;;;6.97;4.97;;;;;;;;;;5047228;28;20787;-75
2021/07/15 02:07:57;;;;;;;5.23;4.60;;;;;;;;;;5051534;28;20777;-74
2021/07/15 02:10:26;;;;;;;6.23;4.70;;;;;;;;;;5048850;28;20298;-75
2021/07/15 02:12:54;;;;;;;11.23;5.90;;;;;;;;;;5044910;28;20203;-74
2021/07/15 02:15:21;;;;;;;10.00;6.67;;;;;;;;;;5048794;28;20282;-75
2021/07/15 02:17:49;;;;;;;8.97;6.67;;;;;;;;;;5047922;28;20202;-74
2021/07/15 02:20:17;;;;;;;10.93;7.20;;;;;;;;;;5045038;28;20207;-75
2021/07/15 02:22:46;;;;;;;9.07;7.07;;;;;;;;;;5042326;28;20595;-75
2021/07/15 02:25:14;;;;;;;11.73;7.03;;;;;;;;;;5044329;28;20217;-74
2021/07/15 02:27:45;;;;;;;9.67;6.37;;;;;;;;;;5044719;28;20233;-75
2021/07/15 02:30:14;;;;;;;6.13;5.40;;;;;;;;;;5046981;28;20207;-75
2021/07/15 02:32:42;;;;;;;9.30;5.20;;;;;;;;;;5044763;28;20725;-76
2021/07/15 02:35:11;;;;;;;9.13;5.37;;;;;;;;;;5047831;28;20695;-76
2021/07/15 02:37:46;;;;;;;11.47;5.30;;;;;;;;;;5048656;28;20202;-75
2021/07/15 02:40:17;;;;;;;10.80;5.43;;;;;;;;;;5049558;28;20325;-75
2021/07/15 02:42:45;;;;;;;7.43;5.00;;;;;;;;;;5044313;28;20234;-75
2021/07/15 02:45:14;;;;;;;8.67;5.03;;;;;;;;;;5044187;28;20677;-75
2021/07/15 02:47:43;;;;;;;7.90;4.63;;;;;;;;;;5048073;28;20229;-76
2021/07/15 02:50:10;;;;;;;8.03;5.13;;;;;;;;;;5051541;28;20199;-76
2021/07/15 02:52:39;;;;;;;6.20;4.70;;;;;;;;;;5042040;28;20234;-76
2021/07/15 02:55:07;;;;;;;7.53;4.90;;;;;;;;;;5044931;28;20198;-75
2021/07/15 02:57:42;;;;;;;8.43;4.60;;;;;;;;;;5045806;28;20233;-76
2021/07/15 03:00:10;;;;;;;6.43;4.30;;;;;;;;;;5043303;28;20198;-76
2021/07/15 03:02:40;;;;;;;6.27;4.97;;;;;;;;;;5044163;28;20309;-75
2021/07/15 03:05:10;;;;;;;6.50;4.00;;;;;;;;;;5046146;28;20210;-76
2021/07/15 03:07:39;;;;;;;5.13;4.13;;;;;;;;;;5042743;28;20240;-75
2021/07/15 03:10:07;;;;;;;7.17;3.73;;;;;;;;;;5046983;28;20199;-75
2021/07/15 03:12:35;;;;;;;6.30;4.60;;;;;;;;;;5046643;28;20223;-75
2021/07/15 03:15:06;;;;;;;7.97;4.87;;;;;;;;;;5047965;28;20203;-75
2021/07/15 03:17:34;;;;;;;5.77;4.73;;;;;;;;;;5046787;28;20215;-75
2021/07/15 03:20:02;;;;;;;5.87;3.90;;;;;;;;;;5046319;28;20206;-75
2021/07/15 03:22:30;;;;;;;5.27;4.00;;;;;;;;;;5041839;28;20318;-76
2021/07/15 03:24:59;;;;;;;7.03;4.30;;;;;;;;;;5042502;28;20698;-76
2021/07/15 03:27:27;;;;;;;9.33;4.53;;;;;;;;;;5045092;28;20459;-75
2021/07/15 03:29:55;;;;;;;7.77;4.63;;;;;;;;;;5044798;28;20199;-74
2021/07/15 03:32:24;;;;;;;6.97;4.30;;;;;;;;;;5046153;28;21095;-74
2021/07/15 03:34:51;;;;;;;6.47;4.60;;;;;;;;;;5045947;28;20294;-75
2021/07/15 03:37:19;;;;;;;6.03;4.70;;;;;;;;;;5045380;28;21555;-76
2021/07/15 03:39:48;;;;;;;7.77;4.57;;;;;;;;;;5046550;28;20198;-74
2021/07/15 03:42:15;;;;;;;5.40;3.63;;;;;;;;;;5045987;28;20768;-77
2021/07/15 03:44:43;;;;;;;6.23;4.87;;;;;;;;;;5048818;28;20298;-75
2021/07/15 03:47:11;;;;;;;7.97;4.73;;;;;;;;;;5042798;28;20226;-75
2021/07/15 03:49:43;;;;;;;9.53;5.60;;;;;;;;;;5042826;28;20286;-75
2021/07/15 03:52:11;;;;;;;6.90;4.33;;;;;;;;;;5040305;28;20223;-75
2021/07/15 03:54:40;;;;;;;8.23;4.50;;;;;;;;;;5046718;28;20231;-76
2021/07/15 03:57:07;;;;;;;9.70;4.57;;;;;;;;;;5057557;28;20206;-75
2021/07/15 03:59:35;;;;;;;7.03;4.63;;;;;;;;;;5044183;28;20345;-75
2021/07/15 04:02:05;;;;;;;6.63;4.70;;;;;;;;;;5050928;28;20304;-75
2021/07/15 04:04:33;;;;;;;7.57;4.60;;;;;;;;;;5046443;28;20285;-75
2021/07/15 04:07:04;;;;;;;8.97;4.50;;;;;;;;;;5049387;28;20206;-77
2021/07/15 04:09:32;;;;;;;8.73;4.80;;;;;;;;;;5050629;28;20298;-75
2021/07/15 04:12:01;;;;;;;5.53;4.27;;;;;;;;;;5047139;28;20231;-75
2021/07/15 04:14:34;;;;;;;5.90;3.80;;;;;;;;;;5041879;28;20218;-75
2021/07/15 04:17:05;;;;;;;5.03;3.40;;;;;;;;;;5045801;28;20623;-73
2021/07/15 04:19:34;;;;;;;5.53;3.30;;;;;;;;;;5043613;28;20731;-75
2021/07/15 04:22:05;;;;;;;8.63;3.80;;;;;;;;;;5045476;28;20225;-75
2021/07/15 04:24:33;;;;;;;11.03;3.30;;;;;;;;;;5045225;28;20206;-76
2021/07/15 04:27:01;;;;;;;5.87;3.73;;;;;;;;;;5040165;28;20210;-75
2021/07/15 04:29:28;;;;;;;8.80;4.27;;;;;;;;;;5046980;28;20204;-74
2021/07/15 04:32:13;;;;;;;8.10;4.53;;;;;;;;;;5044506;28;20230;-74
2021/07/15 04:34:40;;;;;;;6.10;3.50;;;;;;;;;;5046065;28;20758;-74
2021/07/15 04:37:10;;;;;;;8.33;3.80;;;;;;;;;;5045005;28;20730;-74
2021/07/15 04:39:37;;;;;;;8.27;3.37;;;;;;;;;;5045380;28;20210;-76
2021/07/15 04:42:05;;;;;;;6.20;3.40;;;;;;;;;;5049942;28;20230;-75
2021/07/15 04:44:32;;;;;;;8.40;3.67;;;;;;;;;;5050551;28;20206;-74
2021/07/15 04:47:01;;;;;;;5.13;3.53;;;;;;;;;;5046188;28;20202;-74
2021/07/15 04:49:28;;;;;;;6.67;3.67;;;;;;;;;;5050659;28;20298;-74
2021/07/15 04:51:56;;;;;;;5.57;3.83;;;;;;;;;;5046739;28;20318;-77
2021/07/15 04:54:27;;;;;;;9.40;3.37;;;;;;;;;;5046343;28;20203;-77
2021/07/15 04:56:56;;;;;;;6.73;2.90;;;;;;;;;;5047219;28;20199;-74
2021/07/15 04:59:24;;;;;;;5.33;3.10;;;;;;;;;;5044895;28;20285;-75
2021/07/15 05:01:51;;;;;;;3.93;2.50;;;;;;;;;;5044804;28;20229;-74
2021/07/15 05:04:19;;;;;;;3.37;2.57;;;;;;;;;;5045178;28;20211;-75
2021/07/15 05:06:46;;;;;;;7.37;2.70;;;;;;;;;;5044581;28;20198;-75
2021/07/15 05:09:13;;;;;;;11.63;2.30;;;;;;;;;;5045524;28;20237;-74
2021/07/15 05:11:42;;;;;;;4.10;2.40;;;;;;;;;;5042574;28;20317;-74
2021/07/15 05:14:09;;;;;;;3.83;2.73;;;;;;;;;;5045807;28;20298;-75
2021/07/15 05:16:36;;;;;;;4.00;2.57;;;;;;;;;;5037775;28;20200;-75
2021/07/15 05:19:03;;;;;;;9.37;2.70;;;;;;;;;;5041165;28;20274;-74
2021/07/15 05:21:31;;;;;;;3.13;2.50;;;;;;;;;;5043129;28;20234;-75
2021/07/15 05:23:59;;;;;;;4.50;2.50;;;;;;;;;;5043272;28;20216;-75
2021/07/15 05:26:27;;;;;;;4.13;2.70;;;;;;;;;;5042399;28;20199;-75
2021/07/15 05:28:57;;;;;;;3.47;2.40;;;;;;;;;;5044678;28;20215;-75
2021/07/15 05:31:26;;;;;;;5.37;2.97;;;;;;;;;;5045845;28;20245;-75
2021/07/15 05:33:53;;;;;;;4.10;2.93;;;;;;;;;;5044825;28;20265;-75
2021/07/15 05:36:20;;;;;;;3.77;3.13;;;;;;;;;;5041561;28;20249;-75
2021/07/15 05:38:47;;;;;;;5.77;3.67;;;;;;;;;;5044790;28;20287;-75
2021/07/15 05:41:15;;;;;;;4.67;2.40;;;;;;;;;;5044734;28;20602;-76
2021/07/15 05:43:42;;;;;;;5.00;2.10;;;;;;;;;;5045437;28;20573;-75
2021/07/15 05:46:11;;;;;;;2.40;2.00;;;;;;;;;;5044838;28;20217;-76
2021/07/15 05:48:38;;;;;;;4.50;2.57;;;;;;;;;;5044317;28;20223;-74
2021/07/15 05:51:05;;;;;;;4.47;2.93;;;;;;;;;;5042737;28;20229;-76
2021/07/15 05:53:32;;;;;;;4.17;2.90;;;;;;;;;;5046581;28;20314;-74
2021/07/15 05:55:59;;;;;;;6.97;2.90;;;;;;;;;;5042071;28;20688;-76
2021/07/15 05:58:26;;;;;;;3.70;3.07;;;;;;;;;;5045664;28;20207;-76
2021/07/15 06:00:54;;;;;;;3.77;2.10;;;;;;;;;;5041922;28;20608;-75
2021/07/15 06:03:22;;;;;;;2.60;1.90;;;;;;;;;;5048492;28;20203;-75
2021/07/15 06:05:49;;;;;;;4.67;2.70;;;;;;;;;;5045593;28;20213;-75
2021/07/15 06:08:17;;;;;;;3.67;2.13;;;;;;;;;;5042234;28;20338;-76
2021/07/15 06:10:44;;;;;;;3.47;2.37;;;;;;;;;;5041801;28;20226;-76
2021/07/15 06:13:13;;;;;;;3.10;2.20;;;;;;;;;;5041723;28;20289;-75
2021/07/15 06:15:40;;;;;;;3.33;2.63;;;;;;;;;;5042389;28;20245;-78
2021/07/15 06:18:07;;;;;;;3.50;2.30;;;;;;;;;;5046673;28;20203;-77
2021/07/15 06:20:36;;;;;;;3.07;2.20;;;;;;;;;;5041325;28;20301;-78
2021/07/15 06:23:03;;;;;;;4.63;2.00;;;;;;;;;;5044584;28;20656;-77
2021/07/15 06:25:30;;;;;;;2.20;1.73;;;;;;;;;;5045215;28;20318;-77
2021/07/15 06:27:57;;;;;;;3.37;1.50;;;;;;;;;;5043715;28;20324;-76
2021/07/15 06:30:25;;;;;;;1.90;1.63;;;;;;;;;;5034228;28;20199;-77
2021/07/15 06:32:52;;;;;;;1.60;1.50;;;;;;;;;;5038317;28;20284;-75
2021/07/15 06:35:21;;;;;;;1.87;1.40;;;;;;;;;;5036991;28;20578;-75
2021/07/15 06:37:51;;;;;;;4.43;1.30;;;;;;;;;;5050099;28;20219;-74
2021/07/15 06:40:18;;;;;;;1.47;0.90;;;;;;;;;;5044339;28;20302;-74
2021/07/15 06:42:46;;;;;;;0.93;0.70;;;;;;;;;;5043841;28;20307;-75
2021/07/15 06:45:14;;;;;;;2.40;1.10;;;;;;;;;;5045103;28;20203;-76
2021/07/15 06:47:41;;;;;;;1.93;1.23;;;;;;;;;;5043727;28;20281;-75
2021/07/15 06:50:09;;;;;;;1.83;1.40;;;;;;;;;;5040899;28;20207;-75
2021/07/15 06:52:37;;;;;;;2.40;1.37;;;;;;;;;;5040960;28;20308;-74
2021/07/15 06:55:07;;;;;;;2.83;1.57;;;;;;;;;;5043718;28;20216;-74
2021/07/15 06:57:35;;;;;;;1.30;1.20;;;;;;;;;;5045993;28;20286;-75
2021/07/15 07:00:02;;;;;;;1.77;1.10;;;;;;;;;;5045331;28;20251;-75
2021/07/15 07:02:29;;;;;;;4.10;1.20;;;;;;;;;;5042561;28;20235;-76
2021/07/15 07:04:58;;;;;;;1.83;1.00;;;;;;;;;;5044314;28;20282;-75
2021/07/15 07:07:25;;;;;;;1.43;1.10;;;;;;;;;;5038467;28;20945;-74
2021/07/15 07:09:52;;;;;;;7.17;1.33;;;;;;;;;;5037657;28;20802;-75
2021/07/15 07:12:21;;;;;;;1.80;1.03;;;;;;;;;;5037952;28;20470;-76
2021/07/15 07:14:48;;;;;;;1.27;1.10;;;;;;;;;;5040693;28;20209;-76
2021/07/15 07:17:15;;;;;;;1.17;0.90;;;;;;;;;;5039509;28;20289;-75
2021/07/15 07:19:42;;;;;;;4.07;0.93;;;;;;;;;;5036745;28;20312;-75
2021/07/15 07:22:10;;;;;;;1.97;0.80;;;;;;;;;;5038520;28;20317;-75
2021/07/15 07:24:38;;;;;;;0.87;0.80;;;;;;;;;;5039557;28;20336;-74
2021/07/15 07:27:06;;;;;;;4.80;1.00;;;;;;;;;;5036572;28;20229;-74
2021/07/15 07:29:34;;;;;;;5.67;0.87;;;;;;;;;;5039849;28;20224;-71
2021/07/15 07:32:01;;;;;;;1.50;0.83;;;;;;;;;;5037971;28;20337;-72
2021/07/15 07:34:29;;;;;;;1.07;0.60;;;;;;;;;;5038312;28;20211;-71
2021/07/15 07:36:56;;;;;;;1.50;0.70;;;;;;;;;;5037583;28;20203;-71
2021/07/15 07:39:23;;;;;;;0.80;0.80;;;;;;;;;;5040427;28;20203;-71
2021/07/15 07:41:51;;;;;;;0.93;0.80;;;;;;;;;;5041753;28;20322;-72
2021/07/15 07:44:18;;;;;;;1.53;0.80;;;;;;;;;;5040783;28;20213;-70
2021/07/15 07:46:47;;;;;;;0.80;0.80;;;;;;;;;;5042978;28;20681;-71
2021/07/15 07:49:14;;;;;;;4.87;1.00;;;;;;;;;;5040936;28;20227;-71
2021/07/15 07:51:41;;;;;;;1.40;1.03;;;;;;;;;;5044610;28;20317;-71
2021/07/15 07:54:08;;;;;;;7.50;1.53;;;;;;;;;;5043174;28;20672;-71
2021/07/15 07:56:35;;;;;;;3.40;0.97;;;;;;;;;;5041126;28;20210;-71
2021/07/15 07:59:03;;;;;;;7.93;4.40;;;;;;;;;;5043736;28;20248;-70
2021/07/15 08:01:30;;;;;;;10.03;5.07;;;;;;;;;;5041218;28;20255;-70
2021/07/15 08:03:59;;;;;;;1.87;0.90;;;;;;;;;;5038583;28;20210;-72
2021/07/15 08:06:26;;;;;;;2.50;0.73;;;;;;;;;;5042283;28;20204;-71
2021/07/15 08:08:54;;;;;;;1.60;1.00;;;;;;;;;;5044221;28;20696;-71
2021/07/15 08:11:21;;;;;;;2.40;1.30;;;;;;;;;;5042952;28;20709;-70
2021/07/15 08:13:48;;;;;;;4.07;1.00;;;;;;;;;;5041558;28;20678;-71
2021/07/15 08:16:15;;;;;;;0.97;0.80;;;;;;;;;;5042542;28;20588;-71
2021/07/15 08:18:43;;;;;;;0.90;0.80;;;;;;;;;;5041404;28;20312;-71
2021/07/15 08:21:14;;;;;;;3.43;0.97;;;;;;;;;;5043387;28;20312;-71
2021/07/15 08:23:42;;;;;;;12.63;2.83;;;;;;;;;;5044381;28;20219;-73
2021/07/15 08:26:10;;;;;;;3.00;0.80;;;;;;;;;;5042697;28;20298;-71
2021/07/15 08:28:37;;;;;;;1.27;0.90;;;;;;;;;;5041361;28;20708;-71
2021/07/15 08:31:04;;;;;;;1.43;0.80;;;;;;;;;;5041101;28;20712;-71
2021/07/15 08:33:31;;;;;;;2.40;1.10;;;;;;;;;;5041932;28;20646;-72
2021/07/15 08:35:59;;;;;;;1.53;0.80;;;;;;;;;;5045753;28;20209;-72
2021/07/15 08:38:27;;;;;;;3.23;0.70;;;;;;;;;;5050065;28;20211;-71
2021/07/15 08:40:54;;;;;;;0.77;0.67;;;;;;;;;;5046511;28;20717;-70
2021/07/15 08:43:22;;;;;;;1.37;0.70;;;;;;;;;;5051008;28;20217;-70
2021/07/15 08:45:49;;;;;;;0.97;0.87;;;;;;;;;;5040300;22;20274;-75
2021/07/15 08:48:17;;;;;;;1.00;0.80;;;;;;;;;;5018923;28;20215;-77
2021/07/15 08:50:44;;;;;;;1.27;0.50;;;;;;;;;;5020953;28;20311;-77
2021/07/15 08:53:16;;;;;;;1.47;0.80;;;;;;;;;;5019344;28;20231;-76
2021/07/15 08:58:35;;;;;;;2.20;0.80;;;;;;;;;;5022426;28;20218;-76
2021/07/15 09:01:02;;;;;;;0.50;0.50;;;;;;;;;;5022530;28;20315;-76
2021/07/15 09:03:29;;;;;;;1.70;0.90;;;;;;;;;;5019052;28;20200;-75
2021/07/15 09:05:57;;;;;;;0.93;0.60;;;;;;;;;;5017688;28;20208;-75
2021/07/15 09:08:24;;;;;;;1.87;0.60;;;;;;;;;;5018396;28;20295;-75
2021/07/15 09:10:52;;;;;;;0.70;0.70;;;;;;;;;;5014285;28;20264;-75
2021/07/15 09:13:20;;;;;;;1.17;0.80;;;;;;;;;;5019655;28;20685;-75
2021/07/15 09:15:50;;;;;;;0.87;0.60;;;;;;;;;;5020350;28;20223;-75
2021/07/15 09:18:18;;;;;;;1.30;0.70;;;;;;;;;;5020946;28;20298;-76
2021/07/15 09:20:45;;;;;;;1.00;0.63;;;;;;;;;;5018704;28;20315;-76
2021/07/15 09:23:13;;;;;;;2.73;0.70;;;;;;;;;;5015969;28;20243;-75
2021/07/15 09:25:58;;;;;;;0.90;0.57;;;;;;;;;;5019860;28;20575;-76
2021/07/15 09:28:30;;;;;;;0.70;0.50;;;;;;;;;;5021858;28;20649;-75
2021/07/15 09:30:57;;;;;;;1.87;0.60;;;;;;;;;;5016383;28;20227;-75
2021/07/15 09:33:27;;;;;;;2.80;0.53;;;;;;;;;;5018941;28;20656;-75
2021/07/15 09:36:24;;;;;;;0.67;0.60;;;;;;;;;;5017032;28;20665;-75
2021/07/15 09:39:02;;;;;;;3.00;0.80;;;;;;;;;;5015808;28;20257;-75
2021/07/15 09:41:30;;;;;;;1.13;0.70;;;;;;;;;;5018432;28;20239;-75
2021/07/15 09:44:02;;;;;;;0.80;0.70;;;;;;;;;;5018076;28;20663;-75
2021/07/15 09:46:29;;;;;;;1.40;0.70;;;;;;;;;;5014966;28;20700;-76
2021/07/15 09:49:15;;;;;;;1.80;0.73;;;;;;;;;;5020094;28;20224;-76
2021/07/15 09:51:45;;;;;;;1.57;0.70;;;;;;;;;;5018243;28;20233;-75
2021/07/15 09:54:16;;;;;;;0.63;0.60;;;;;;;;;;5021229;28;20211;-76
2021/07/15 09:59:53;;;;;;;0.73;0.57;;;;;;;;;;5015743;28;20570;-76
2021/07/15 10:02:29;;;;;;;3.33;0.60;;;;;;;;;;5019611;28;20314;-76
2021/07/15 10:04:56;;;;;;;0.70;0.50;;;;;;;;;;5023901;28;20209;-75
2021/07/15 10:07:24;;;;;;;1.47;0.60;;;;;;;;;;5018689;28;20248;-76
2021/07/15 10:09:51;;;;;;;1.23;0.50;;;;;;;;;;5023835;28;20311;-75
2021/07/15 10:12:25;;;;;;;0.50;0.50;;;;;;;;;;5026469;28;20229;-76
2021/07/15 10:14:54;;;;;;;1.27;0.57;;;;;;;;;;5017740;28;20204;-75
2021/07/15 10:17:36;;;;;;;1.10;0.73;;;;;;;;;;5017786;28;20295;-78
2021/07/15 10:20:09;;;;;;;1.60;0.80;;;;;;;;;;5018572;28;20215;-76
2021/07/15 10:22:37;;;;;;;0.90;0.60;;;;;;;;;;5016369;28;20235;-75
2021/07/15 10:25:04;;;;;;;0.83;0.50;;;;;;;;;;5017385;28;20631;-75
2021/07/15 10:27:32;;;;;;;0.80;0.67;;;;;;;;;;5018532;28;20211;-76
2021/07/15 10:30:01;;;;;;;1.87;0.60;;;;;;;;;;5017893;28;20780;-76
2021/07/15 10:32:29;;;;;;;1.47;0.53;;;;;;;;;;5015322;28;20315;-75
2021/07/15 10:35:06;;;;;;;1.27;0.60;;;;;;;;;;5017938;28;20303;-76
2021/07/15 10:37:35;;;;;;;1.57;0.70;;;;;;;;;;5016286;28;20204;-76
2021/07/15 10:40:03;;;;;;;1.00;0.70;;;;;;;;;;5017886;28;20230;-76
2021/07/15 10:45:35;;;;;;;3.73;0.53;;;;;;;;;;5015998;28;20716;-76
2021/07/15 10:48:02;;;;;;;0.50;0.50;;;;;;;;;;5018652;28;20211;-76
2021/07/15 10:50:29;;;;;;;0.73;0.70;;;;;;;;;;5013961;28;20234;-76
2021/07/15 10:52:57;;;;;;;2.40;0.50;;;;;;;;;;5016418;28;20294;-76
2021/07/15 10:55:26;;;;;;;0.50;0.50;;;;;;;;;;5017071;28;20210;-76
2021/07/15 10:57:53;;;;;;;1.47;0.50;;;;;;;;;;5018765;28;20595;-76
2021/07/15 11:03:29;;;;;;;1.70;0.50;;;;;;;;;;5095631;22;20230;-76
2021/07/15 11:06:33;;;;;;;0.60;0.57;;;;;;;;;;5045476;28;20205;-76
2021/07/15 11:09:02;;;;;;;1.47;0.67;;;;;;;;;;5048780;28;20207;-75
2021/07/15 11:14:44;;;;;;;0.97;0.60;;;;;;;;;;5036891;28;20186;-75
2021/07/15 11:20:19;;;;;;;1.20;0.57;;;;;;;;;;5037241;28;20568;-75
2021/07/15 11:22:51;;;;;;;1.20;0.70;;;;;;;;;;5040540;28;20225;-77
2021/07/15 11:25:35;;;;;;;1.47;0.60;;;;;;;;;;5035344;28;20207;-77
2021/07/15 11:28:04;;;;;;;0.60;0.50;;;;;;;;;;5038890;28;20218;-76
2021/07/15 11:30:45;;;;;;;0.97;0.80;;;;;;;;;;5036999;28;20250;-77
2021/07/15 11:33:37;;;;;;;1.17;0.67;;;;;;;;;;5035354;28;20220;-77
2021/07/15 11:36:11;;;;;;;0.83;0.63;;;;;;;;;;5035702;28;20245;-77
2021/07/15 11:39:26;;;;;;;2.37;0.80;;;;;;;;;;5034401;28;20257;-76
2021/07/15 11:41:53;;;;;;;1.07;0.67;;;;;;;;;;5034798;28;20306;-77
2021/07/15 11:44:20;;;;;;;1.10;0.70;;;;;;;;;;5033993;28;20209;-76
2021/07/15 11:46:50;;;;;;;0.90;0.80;;;;;;;;;;5036344;28;20214;-77
2021/07/15 11:49:25;;;;;;;1.10;0.60;;;;;;;;;;5036683;28;20294;-77
2021/07/15 11:52:01;;;;;;;1.03;0.50;;;;;;;;;;5035892;28;20223;-76
2021/07/15 11:54:43;;;;;;;0.70;0.70;;;;;;;;;;5037711;28;20230;-76
2021/07/15 11:57:24;;;;;;;0.80;0.50;;;;;;;;;;5037423;28;20661;-76
2021/07/15 11:59:52;;;;;;;0.80;0.60;;;;;;;;;;5036129;28;20294;-76
2021/07/15 12:02:20;;;;;;;3.33;0.80;;;;;;;;;;5038298;28;20242;-76
2021/07/15 12:08:11;;;;;;;0.87;0.50;;;;;;;;;;5036050;28;20202;-76
2021/07/15 12:10:41;;;;;;;0.50;0.50;;;;;;;;;;5031103;28;20314;-77
2021/07/15 12:13:15;;;;;;;0.70;0.60;;;;;;;;;;5035374;28;20430;-77
2021/07/15 12:15:44;;;;;;;3.73;0.77;;;;;;;;;;5037895;28;20253;-77
2021/07/15 12:18:13;;;;;;;0.60;0.50;;;;;;;;;;5037236;28;20207;-76
2021/07/15 12:20:41;;;;;;;0.63;0.50;;;;;;;;;;5034295;28;20235;-76
2021/07/15 12:26:16;;;;;;;2.73;0.70;;;;;;;;;;5038033;28;20313;-75
2021/07/15 12:28:46;;;;;;;1.00;0.50;;;;;;;;;;5042057;28;20220;-76
2021/07/15 12:34:17;;;;;;;0.73;0.60;;;;;;;;;;5035201;28;20186;-76
2021/07/15 12:36:50;;;;;;;3.27;0.70;;;;;;;;;;5038473;28;20304;-75
2021/07/15 12:39:19;;;;;;;0.57;0.50;;;;;;;;;;5039468;28;20213;-76
2021/07/15 12:41:48;;;;;;;0.60;0.60;;;;;;;;;;5041339;28;20230;-74
2021/07/15 12:44:45;;;;;;;1.33;0.40;;;;;;;;;;5039416;28;20285;-77
2021/07/15 12:47:13;;;;;;;2.60;0.70;;;;;;;;;;5040345;28;20203;-76
2021/07/15 12:49:40;;;;;;;0.70;0.60;;;;;;;;;;5036965;28;20209;-76
2021/07/15 12:52:07;;;;;;;1.03;0.80;;;;;;;;;;5035325;28;20222;-77
2021/07/15 12:54:36;;;;;;;0.70;0.70;;;;;;;;;;5040917;28;20345;-76
2021/07/15 13:00:01;;;;;;;1.70;0.53;;;;;;;;;;5040650;28;20214;-76
2021/07/15 13:02:32;;;;;;;1.13;0.60;;;;;;;;;;5043041;28;20616;-76
2021/07/15 13:08:02;;;;;;;1.10;0.70;;;;;;;;;;5028087;28;20637;-76
2021/07/15 13:10:39;;;;;;;0.90;0.80;;;;;;;;;;5041925;28;20304;-76
2021/07/15 13:15:53;;;;;;;0.83;0.80;;;;;;;;;;5042146;28;20210;-77
2021/07/15 13:18:24;;;;;;;1.43;0.80;;;;;;;;;;5041469;28;20200;-77
2021/07/15 13:20:51;;;;;;;0.50;0.50;;;;;;;;;;5036750;28;20219;-76
2021/07/15 13:26:30;;;;;;;1.23;0.70;;;;;;;;;;4998376;28;20209;-77
2021/07/15 13:29:09;;;;;;;0.60;0.60;;;;;;;;;;5038316;28;20203;-76
2021/07/15 13:31:39;;;;;;;0.87;0.87;;;;;;;;;;5201752;22;20226;-76
2021/07/15 13:34:08;;;;;;;1.30;0.70;;;;;;;;;;5046799;28;20199;-76
2021/07/15 13:36:35;;;;;;;1.50;0.80;;;;;;;;;;5042905;28;20217;-76
2021/07/15 13:39:27;;;;;;;0.80;0.80;;;;;;;;;;5043917;28;20209;-76
2021/07/15 13:41:59;;;;;;;0.83;0.73;;;;;;;;;;5041517;28;20221;-76
2021/07/15 13:44:27;;;;;;;1.00;0.90;;;;;;;;;;5037943;28;20661;-77
2021/07/15 13:47:01;;;;;;;0.60;0.60;;;;;;;;;;5038855;28;20846;-75
2021/07/15 13:49:40;;;;;;;0.70;0.70;;;;;;;;;;5037689;28;20472;-74
2021/07/15 13:52:29;;;;;;;3.60;0.70;;;;;;;;;;5039318;28;20292;-74
2021/07/15 13:54:56;;;;;;;1.73;0.90;;;;;;;;;;5039344;28;20506;-75
2021/07/15 13:57:25;;;;;;;1.33;0.70;;;;;;;;;;5040157;28;20732;-75
2021/07/15 13:59:54;;;;;;;2.70;0.90;;;;;;;;;;5038324;28;20282;-75
2021/07/15 14:02:21;;;;;;;0.80;0.63;;;;;;;;;;5039789;28;20254;-74
2021/07/15 14:04:49;;;;;;;2.00;0.90;;;;;;;;;;5040154;28;20293;-75
2021/07/15 14:07:17;;;;;;;0.93;0.70;;;;;;;;;;5038916;28;20201;-76
2021/07/15 14:09:46;;;;;;;1.07;0.70;;;;;;;;;;5035947;28;20287;-76
2021/07/15 14:12:14;;;;;;;0.90;0.90;;;;;;;;;;5042678;28;20237;-76
2021/07/15 14:14:47;;;;;;;0.70;0.70;;;;;;;;;;5037875;28;20211;-75
2021/07/15 14:20:19;;;;;;;0.70;0.63;;;;;;;;;;5044317;28;20269;-75
2021/07/15 14:22:46;;;;;;;1.00;0.80;;;;;;;;;;5037397;28;20322;-75
2021/07/15 14:25:14;;;;;;;0.60;0.60;;;;;;;;;;5042877;28;20231;-76
2021/07/15 14:27:41;;;;;;;2.40;0.73;;;;;;;;;;5046440;28;20281;-76
2021/07/15 14:30:09;;;;;;;0.70;0.70;;;;;;;;;;5042395;28;20206;-75
2021/07/15 14:32:36;;;;;;;0.97;0.70;;;;;;;;;;5039097;28;20705;-75
2021/07/15 14:35:03;;;;;;;0.67;0.60;;;;;;;;;;5039874;28;20679;-75
2021/07/15 14:37:42;;;;;;;0.70;0.70;;;;;;;;;;5037075;28;20302;-75
2021/07/15 14:40:10;;;;;;;0.70;0.70;;;;;;;;;;5036739;28;20206;-75
2021/07/15 14:42:37;;;;;;;1.13;0.67;;;;;;;;;;5041433;28;20285;-75
2021/07/15 14:45:05;;;;;;;1.53;0.60;;;;;;;;;;5036786;28;20618;-75
2021/07/15 14:47:34;;;;;;;1.07;0.60;;;;;;;;;;5030928;28;20294;-75
2021/07/15 14:50:02;;;;;;;1.10;0.70;;;;;;;;;;5036051;28;20294;-75
2021/07/15 14:52:45;;;;;;;0.70;0.70;;;;;;;;;;5035968;28;20318;-75
2021/07/15 14:55:13;;;;;;;0.70;0.70;;;;;;;;;;5033737;28;20261;-75
2021/07/15 14:57:40;;;;;;;1.10;0.57;;;;;;;;;;5056404;22;20227;-75
2021/07/15 15:00:09;;;;;;;2.17;0.70;;;;;;;;;;5043504;28;20659;-75
2021/07/15 15:02:37;;;;;;;0.67;0.67;;;;;;;;;;5018074;28;20223;-75
2021/07/15 15:05:04;;;;;;;0.73;0.73;;;;;;;;;;5016187;28;20216;-75
2021/07/15 15:07:31;;;;;;;2.70;0.80;;;;;;;;;;5017536;28;20214;-75
2021/07/15 15:10:00;;;;;;;1.17;0.80;;;;;;;;;;5017185;28;20200;-75
2021/07/15 15:12:30;;;;;;;1.30;0.80;;;;;;;;;;5015826;28;21415;-75
2021/07/15 15:14:58;;;;;;;1.37;0.70;;;;;;;;;;5015232;28;20219;-75
2021/07/15 15:17:25;;;;;;;0.70;0.70;;;;;;;;;;5016656;28;20218;-75
2021/07/15 15:19:52;;;;;;;3.50;1.00;;;;;;;;;;5017900;28;20293;-75
2021/07/15 15:22:19;;;;;;;0.93;0.80;;;;;;;;;;5018510;28;20220;-75
2021/07/15 15:24:46;;;;;;;1.33;0.80;;;;;;;;;;5017880;28;20214;-75
2021/07/15 15:27:15;;;;;;;2.37;1.00;;;;;;;;;;5017383;28;20376;-76
2021/07/15 15:29:44;;;;;;;1.60;1.40;;;;;;;;;;5014575;28;20232;-76
2021/07/15 15:32:11;;;;;;;2.83;0.80;;;;;;;;;;5014807;28;20224;-75
2021/07/15 15:34:38;;;;;;;1.03;0.90;;;;;;;;;;5016842;28;20289;-77
2021/07/15 15:37:05;;;;;;;0.80;0.80;;;;;;;;;;5018372;28;20214;-73
2021/07/15 15:39:33;;;;;;;1.10;1.00;;;;;;;;;;5015652;28;20696;-74